Station: Robe Airport

  Atmospheric Gas Attenuation - ITU Rec 676-11   --------------- db/100km ---------------
Date Time Temp RH % AH g/m3 Dew Point Wind Direction Speed kph Gust kph Barometer mB Rainfall Since 9am 24GHz 47GHz 76GHz 122GHz 134GHz 241GHz
17 02:50 4.8 4.9 7 9 1013.1 0
17 02:40 4.4 4.5 7 9 1013.1 0
17 02:30 4.8 100 6.71 4.8 6 9 1022.1 0 15.9 25.7 36.7 96.1 84.0 286.9
17 02:20 4.9 5 6 7 1013.1 0
17 02:10 5.3 5.4 9 9 1013.1 0
17 02:00 4.9 100 6.76 4.9 7 7 1022.1 0 16.0 25.8 36.9 96.5 84.6 288.9
17 01:50 5 5.1 7 7 1013.1 0
17 01:40 4.7 4.9 7 7 1013.1 0
17 01:30 4 100 6.36 4 7 9 1022.1 0 15.2 25.3 35.6 93.1 80.0 272.6
17 01:20 3.1 100 5.99 3.1 7 7 1013.1 0 14.4 24.6 34.1 89.1 75.2 255.7
17 01:10 3.4 3.5 6 6 1013.1 0
17 01:00 2.6 100 5.79 2.6 6 6 1022.3 0 14.0 24.8 33.9 88.3 73.5 249.6
17 00:50 2.5 99 5.7 2.3 6 6 1013.1 0 13.8 24.3 33.1 86.5 71.8 243.6
17 00:40 3.4 100 6.11 3.4 0 0 1013.1 0 14.7 24.7 34.5 90.1 76.5 260.5
17 00:30 3.4 99 6.05 3.3 0 0 1022.8 0 14.6 25.0 34.6 90.4 76.4 259.7
17 00:20 4 99 6.3 3.8 0 0 1013.1 0 15.1 24.9 35.0 91.5 78.6 267.6
17 00:10 4.5 99 6.51 4.3 0 0 1013.1 0 15.5 25.1 35.6 93.3 80.9 276.1
17 00:00 4.9 100 6.76 4.9 0 0 1023.1 0 16.0 25.8 37.0 96.6 84.7 289.2
16 23:50 4.9 99 6.69 4.7 0 0 1013.1 0 15.9 25.3 36.2 94.8 83.0 283.4
16 23:40 5.6 100 7.07 5.6 0 0 1013.1 0 16.7 25.7 37.5 98.2 87.5 299.3
16 23:30 5.8 100 7.17 5.8 0 0 1023.1 0 16.9 26.2 38.3 100.1 89.4 305.9
16 23:20 5.9 100 7.22 5.9 0 0 1013.1 0 17.0 25.9 38.0 99.5 89.3 305.4
16 23:10 5.6 100 7.07 5.6 0 0 1013.1 0 16.7 25.7 37.5 98.2 87.5 299.3
16 23:00 5.2 99 6.82 5.1 0 0 1023.3 0 16.1 25.8 37.1 96.9 85.2 291.0
16 22:50 5.3 99 6.87 5.1 0 0 1013.1 0 16.3 25.5 36.8 96.3 85.1 290.6
16 22:40 5.1 99 6.78 4.9 0 0 1013.1 0 16.1 25.4 36.5 95.6 84.0 287.0
16 22:30 5.1 99 6.78 5 0 0 1023.4 0 16.1 25.8 37.0 96.6 84.8 289.5
16 22:20 5.5 99 6.96 5.3 0 0 1013.1 0 16.4 25.6 37.1 97.1 86.1 294.3
16 22:10 5.6 99 7 5.4 0 0 1013.1 0 16.5 25.6 37.2 97.4 86.5 295.8
16 22:00 5.7 99 7.05 5.6 0 0 1023.6 0 16.6 26.1 37.8 99.0 87.9 300.5
16 21:50 5.7 99 7.05 5.5 0 0 1013.1 0 16.6 25.7 37.4 97.9 87.1 297.9
16 21:40 5.9 99 7.14 5.7 0 0 1013.1 0 16.8 25.8 37.6 98.6 88.1 301.5
16 21:30 5.4 98 6.84 5.1 0 0 1023.7 0 16.2 25.8 37.1 97.0 85.3 291.4
16 21:20 6.1 98 7.16 5.8 0 0 1013.1 0 16.8 25.7 37.6 98.6 88.2 301.7
16 21:10 6.2 98 7.21 5.9 0 0 1013.1 0 16.9 25.8 37.8 99.0 88.8 303.8
16 21:00 5.9 98 7.07 5.6 0 0 1023.7 0 16.7 26.1 37.8 98.9 88.0 300.7
16 20:50 6 98 7.12 5.7 0 0 1013.1 0 16.8 25.7 37.5 98.3 87.8 300.1
16 20:40 6 98 7.12 5.7 0 0 1013.1 0 16.8 25.7 37.5 98.3 87.8 300.1
16 20:30 5.7 97 6.91 5.3 0 0 1023.7 0 16.3 25.9 37.2 97.4 86.0 293.7
16 20:20 5.5 97 6.82 5 0 0 1013.1 0 16.1 25.3 36.5 95.5 84.2 287.5
16 20:10 5.3 97 6.73 4.8 0 0 1013.1 0 15.9 25.2 36.2 94.8 83.1 283.8
16 20:00 5.5 96 6.75 4.9 0 0 1023.7 0 16.0 25.6 36.7 95.8 84.0 286.6
16 19:50 5.9 96 6.93 5.3 0 0 1013.1 0 16.4 25.4 36.8 96.3 85.2 291.3
16 19:40 5.7 96 6.84 5.1 0 0 1013.1 0 16.2 25.3 36.5 95.5 84.2 287.7
16 19:30 5.2 95 6.55 4.5 0 0 1023.6 0 15.6 25.4 36.0 93.9 81.5 278.0
16 19:20 5.5 95 6.68 4.7 0 0 1013.1 0 15.8 25.1 35.9 94.0 82.2 280.7
16 19:10 6 95 6.9 5.2 0 0 1013.1 0 16.3 25.3 36.6 95.8 84.7 289.5
16 19:00 6.6 95 7.18 5.9 0 0 1023.6 0 16.9 26.0 38.0 99.3 88.7 303.4
16 18:50 7.6 95 7.66 6.8 0 0 1013.1 0 17.9 26.2 39.0 102.3 93.4 320.0
16 18:40 7.8 94 7.67 6.9 0 0 1013.1 0 17.9 26.1 39.0 102.2 93.3 319.7
16 18:30 8.1 92 7.66 6.9 0 0 1023.4 0 17.8 26.4 39.2 102.7 93.6 320.7
16 18:20 8.1 91 7.58 6.7 0 0 1013.1 0 17.7 25.9 38.4 100.8 91.7 314.1
16 18:10 8.8 91 7.92 7.4 0 0 1013.1 0 18.4 26.2 39.5 103.6 95.5 327.6
16 18:00 8.9 89 7.8 7.2 0 0 1023.2 0 18.1 26.4 39.4 103.2 94.5 324.1
16 17:50 9.7 88 8.11 7.9 0 0 1013.1 0 18.7 26.3 39.9 104.6 97.0 333.0
16 17:40 10.2 87 8.28 8.1 2 2 1013.1 0 19.1 26.4 40.3 105.8 98.7 339.0
16 17:30 10.2 85 8.09 7.8 4 6 1023.1 0 18.7 26.5 40.0 104.7 96.9 332.6
16 17:20 11 84 8.41 8.4 6 6 1013.1 0 19.3 26.4 40.4 106.1 99.4 341.7
16 17:10 11.7 83 8.68 8.9 6 6 1013.1 0 19.9 26.6 41.2 108.2 102.2 351.5
16 17:00 12.1 82 8.79 9.1 6 7 1023.1 0 20.1 27.1 41.9 109.9 104.0 357.8
16 16:50 12.5 81 8.91 9.3 6 7 1013.1 0 20.3 26.8 41.7 109.6 104.2 358.8
16 16:40 13.1 80 9.13 9.7 6 6 1013.1 0 20.8 27.0 42.3 111.2 106.4 366.5
16 16:30 13.3 79 9.13 9.7 7 9 1022.9 0 20.7 27.3 42.7 111.9 107.0 368.4
16 16:20 13.7 77 9.12 9.7 7 9 1013.1 0 20.7 26.8 42.0 110.2 105.5 363.2
16 16:10 13.9 78 9.35 10.1 9 11 1013.1 0 21.2 27.1 42.8 112.4 108.3 373.1
16 16:00 14 77 9.29 10 9 13 1023.1 0 21.0 27.3 43.0 112.7 108.2 372.8
16 15:50 14.3 76 9.34 10.1 7 9 1013.1 0 21.1 26.9 42.5 111.8 107.6 370.7
16 15:40 14.4 75 9.27 10 9 11 1013.1 0 21.0 26.8 42.2 110.9 106.5 367.0
16 15:30 14.4 75 9.27 10 9 11 1023 0 21.0 27.2 42.7 111.9 107.4 369.9
16 15:20 14.5 75 9.33 10.1 9 11 1013.1 0 21.1 26.9 42.4 111.4 107.2 369.3
16 15:10 14.4 75 9.27 10 9 11 1013.1 0 21.0 26.8 42.2 110.9 106.5 367.0
16 15:00 14.6 74 9.26 10 7 13 1022.9 0 20.9 27.1 42.5 111.5 107.0 368.4
16 14:50 14.8 74 9.37 10.2 7 9 1013.1 0 21.2 26.8 42.4 111.4 107.3 369.8
16 14:40 15 74 9.49 10.4 6 7 1013.1 0 21.4 27.0 42.8 112.4 108.6 374.5
16 14:30 14.6 74 9.26 10 7 13 1023 0 20.9 27.1 42.5 111.5 107.0 368.5
16 14:20 14.6 75 9.39 10.2 7 9 1013.1 0 21.2 26.9 42.6 111.9 107.8 371.7
16 14:10 14.9 74 9.43 10.3 6 7 1013.1 0 21.3 26.9 42.6 111.9 108.0 372.1
16 14:00 14.5 74 9.2 9.9 7 13 1023.2 0 20.8 27.0 42.3 111.0 106.3 366.2
16 13:50 14.9 73 9.3 10.1 7 9 1013.1 0 21.0 26.7 42.0 110.5 106.2 366.0
16 13:40 15.3 74 9.66 10.7 7 11 1013.1 0 21.8 27.2 43.3 113.8 110.5 381.0
16 13:30 15.1 73 9.42 10.3 9 15 1023.1 0 21.3 27.2 42.9 112.6 108.4 373.7
16 13:20 15.2 73 9.48 10.4 7 7 1013.1 0 21.4 26.9 42.6 112.0 108.2 373.0
16 13:10 14.8 73 9.25 10 9 11 1013.1 0 20.9 26.6 41.9 110.1 105.7 364.2
16 13:00 14.6 73 9.14 9.8 11 19 1023.2 0 20.7 26.9 42.0 110.2 105.4 362.9
16 12:50 14.5 73 9.08 9.7 9 17 1013.1 0 20.6 26.5 41.4 108.6 103.8 357.6
16 12:40 14.8 74 9.37 10.2 7 7 1013.1 0 21.2 26.8 42.4 111.4 107.3 369.8
16 12:30 15.1 76 9.8 10.9 9 17 1023.7 0 22.1 27.9 44.5 116.8 113.6 391.8
16 12:20 14.8 74 9.37 10.2 9 13 1013.1 0 21.2 26.8 42.4 111.4 107.3 369.8
16 12:10 14.7 76 9.57 10.5 9 13 1013.1 0 21.6 27.2 43.3 113.7 110.1 379.7
16 12:00 14.9 75 9.56 10.5 7 13 1024 0 21.6 27.5 43.6 114.5 110.7 381.5
16 11:50 14.7 78 9.82 10.9 6 7 1013.1 0 22.2 27.6 44.3 116.5 113.5 391.5
16 11:40 14.4 76 9.39 10.2 9 13 1013.1 0 21.2 27.0 42.7 112.2 108.1 372.6
16 11:30 14.7 78 9.82 10.9 9 13 1024.2 0 22.1 28.1 44.8 117.7 114.5 395.0
16 11:20 13.9 79 9.47 10.3 6 7 1013.1 0 21.4 27.3 43.3 113.8 109.9 378.8
16 11:10 14.6 83 10.39 11.7 9 11 1013.1 0 23.4 28.6 46.7 123.0 121.5 419.5
16 11:00 14.1 90 10.92 12.5 7 11 1024.5 0 24.5 30.2 49.9 131.2 131.0 452.4
16 10:50 13.7 94 11.13 12.7 4 7 1013.1 0 25.0 30.2 50.5 133.0 133.5 461.3
16 10:40 13.9 97 11.63 13.4 0 0 1013.1 0 26.1 31.0 52.6 138.6 140.5 485.5
16 10:30 12.8 99 11.09 12.6 0 2 1024.9 0 25.0 30.9 51.5 135.6 135.8 468.9
16 10:20 11.8 100 10.53 11.8 2 4 1013.1 0 23.8 29.8 49.1 129.2 128.1 442.1

Last Refresh: 17-Jul-2020 03:00:40

Most of the information presented on this site is sourced from the Bureau of Meteorology.  Copyright in all material sourced from the Bureau of Meteorology resides with the Commonwealth of Australia.